createdAt,value
2022-10-13T00:01:23.944Z,11.80
2022-10-13T00:03:50.400Z,11.78
2022-10-13T00:06:16.691Z,11.58
2022-10-13T00:08:42.960Z,11.58
2022-10-13T00:11:09.363Z,11.58
2022-10-13T00:13:35.649Z,11.64
2022-10-13T00:16:01.907Z,11.48
2022-10-13T00:18:28.490Z,11.55
2022-10-13T00:20:54.740Z,11.56
2022-10-13T00:23:21.002Z,11.63
2022-10-13T00:25:47.447Z,11.59
2022-10-13T00:28:14.226Z,11.58
2022-10-13T00:30:40.587Z,11.55
2022-10-13T00:33:07.669Z,11.58
2022-10-13T00:35:34.011Z,11.43
2022-10-13T00:38:00.550Z,11.49
2022-10-13T00:40:26.904Z,11.57
2022-10-13T00:42:53.594Z,11.58
2022-10-13T00:45:20.613Z,11.56
2022-10-13T00:47:47.187Z,11.64
2022-10-13T00:50:13.924Z,11.48
2022-10-13T00:52:40.301Z,11.49
2022-10-13T00:55:06.921Z,11.52
2022-10-13T00:57:33.387Z,11.54
2022-10-13T00:59:59.700Z,11.48
2022-10-13T01:02:26.339Z,11.50
2022-10-13T01:04:52.624Z,11.53
2022-10-13T01:07:18.934Z,11.44
2022-10-13T01:09:45.349Z,11.38
2022-10-13T01:12:11.642Z,11.46
2022-10-13T01:14:40.340Z,11.48
2022-10-13T01:17:06.737Z,11.53
2022-10-13T01:19:33.159Z,11.48
2022-10-13T01:21:59.405Z,11.53
2022-10-13T01:24:25.799Z,11.53
2022-10-13T01:26:52.044Z,11.51
2022-10-13T01:29:18.393Z,11.35
2022-10-13T01:31:45.291Z,11.40
2022-10-13T01:34:13.650Z,11.41
2022-10-13T01:36:40.048Z,11.44
2022-10-13T01:39:06.479Z,11.49
2022-10-13T01:41:32.803Z,11.51
2022-10-13T01:43:59.061Z,11.53
2022-10-13T01:46:25.391Z,11.52
2022-10-13T01:48:51.671Z,11.34
2022-10-13T01:51:17.973Z,11.28
2022-10-13T01:53:45.160Z,11.39
2022-10-13T01:56:11.428Z,11.43
2022-10-13T01:58:37.732Z,11.43
2022-10-13T02:01:04.074Z,11.45
2022-10-13T02:03:30.408Z,11.49
2022-10-13T02:05:56.706Z,11.46
2022-10-13T02:08:23.274Z,11.46
2022-10-13T02:10:49.540Z,11.43
2022-10-13T02:13:15.802Z,11.39
2022-10-13T02:15:42.339Z,11.35
2022-10-13T02:18:08.647Z,11.42
2022-10-13T02:20:35.004Z,11.45
2022-10-13T02:23:01.602Z,11.44
2022-10-13T02:25:27.953Z,11.50
2022-10-13T02:27:54.307Z,11.51
2022-10-13T02:30:21.268Z,11.55
2022-10-13T02:32:47.532Z,11.56
2022-10-13T02:35:14.060Z,11.57
2022-10-13T02:37:40.577Z,11.59
2022-10-13T02:40:06.995Z,11.47
2022-10-13T02:42:33.270Z,11.52
2022-10-13T02:44:59.675Z,11.51
2022-10-13T02:47:25.943Z,11.53
2022-10-13T02:49:52.684Z,11.56
2022-10-13T02:52:19.509Z,11.58
2022-10-13T02:54:45.955Z,11.59
2022-10-13T02:57:12.230Z,11.59
2022-10-13T02:59:39.353Z,11.59
2022-10-13T03:02:05.701Z,11.58
2022-10-13T03:04:32.178Z,11.59
2022-10-13T03:06:59.159Z,11.62
2022-10-13T03:09:25.421Z,11.64
2022-10-13T03:11:51.813Z,11.64
2022-10-13T03:14:18.449Z,11.66
2022-10-13T03:16:44.750Z,11.65
2022-10-13T03:19:11.110Z,11.65
2022-10-13T03:21:37.876Z,11.67
2022-10-13T03:24:04.351Z,11.63
2022-10-13T03:26:30.749Z,11.65
2022-10-13T03:28:57.525Z,11.63
2022-10-13T03:31:23.757Z,11.64
2022-10-13T03:33:50.043Z,11.66
2022-10-13T03:36:16.545Z,11.69
2022-10-13T03:38:43.144Z,11.65
2022-10-13T03:41:09.677Z,11.65
2022-10-13T03:43:36.231Z,11.68
2022-10-13T03:46:02.548Z,11.71
2022-10-13T03:48:29.054Z,11.70
2022-10-13T03:50:55.700Z,11.67
2022-10-13T03:53:22.066Z,11.72
2022-10-13T03:55:50.967Z,11.73
2022-10-13T03:58:20.258Z,11.72
2022-10-13T04:00:46.567Z,11.72
2022-10-13T04:03:13.144Z,11.72
2022-10-13T04:05:39.449Z,11.72
2022-10-13T04:08:05.750Z,11.72
2022-10-13T04:10:32.303Z,11.72
2022-10-13T04:12:58.820Z,11.75
2022-10-13T04:15:25.080Z,11.75
2022-10-13T04:17:51.380Z,11.68
2022-10-13T04:20:17.958Z,11.70
2022-10-13T04:22:44.271Z,11.73
2022-10-13T04:25:10.594Z,11.78
2022-10-13T04:27:37.685Z,11.79
2022-10-13T04:30:04.014Z,11.74
2022-10-13T04:32:30.359Z,11.73
2022-10-13T04:34:56.660Z,11.73
2022-10-13T04:37:22.950Z,11.73
2022-10-13T04:39:49.451Z,11.72
2022-10-13T04:42:16.034Z,11.72
2022-10-13T04:44:42.368Z,11.73
2022-10-13T04:47:09.118Z,11.74
2022-10-13T04:49:35.871Z,11.74
2022-10-13T04:52:02.184Z,11.76
2022-10-13T04:54:28.507Z,11.77
2022-10-13T04:56:55.078Z,11.76
2022-10-13T04:59:21.429Z,11.74
2022-10-13T05:01:47.690Z,11.71
2022-10-13T05:04:16.269Z,11.70
2022-10-13T05:07:05.449Z,11.71
2022-10-13T05:09:29.488Z,11.67
2022-10-13T05:11:55.823Z,11.70
2022-10-13T05:14:22.140Z,11.75
2022-10-13T05:16:49.006Z,11.72
2022-10-13T05:19:15.477Z,11.70
2022-10-13T05:21:41.737Z,11.65
2022-10-13T05:24:10.551Z,11.66
2022-10-13T05:26:36.833Z,11.69
2022-10-13T05:29:03.103Z,11.71
2022-10-13T05:31:29.434Z,11.69
2022-10-13T05:33:55.667Z,11.69
2022-10-13T05:36:22.389Z,11.67
2022-10-13T05:38:48.732Z,11.65
2022-10-13T05:41:17.052Z,11.68
2022-10-13T05:43:43.324Z,11.69
2022-10-13T05:46:09.680Z,11.68
2022-10-13T05:48:36.166Z,11.67
2022-10-13T05:51:05.615Z,11.67
2022-10-13T05:53:32.045Z,11.70
2022-10-13T05:55:58.334Z,11.69
2022-10-13T05:58:24.652Z,11.68
2022-10-13T06:00:50.991Z,11.72
2022-10-13T06:03:17.342Z,11.73
2022-10-13T06:05:43.687Z,11.70
2022-10-13T06:08:10.553Z,11.70
2022-10-13T06:10:36.837Z,11.69
2022-10-13T06:13:03.294Z,11.71
2022-10-13T06:15:30.319Z,11.70
2022-10-13T06:17:56.698Z,11.74
2022-10-13T06:20:23.090Z,11.75
2022-10-13T06:22:49.670Z,11.76
2022-10-13T06:25:15.939Z,11.75
2022-10-13T06:27:42.202Z,11.78
2022-10-13T06:30:08.654Z,11.80
2022-10-13T06:32:35.091Z,11.75
2022-10-13T06:35:01.361Z,11.75
2022-10-13T06:37:27.805Z,11.82
2022-10-13T06:39:54.191Z,11.52
2022-10-13T06:42:20.814Z,11.81
2022-10-13T06:44:47.402Z,12.20
2022-10-13T06:47:13.662Z,12.45
2022-10-13T06:49:39.936Z,12.71
2022-10-13T06:52:06.803Z,12.62
2022-10-13T06:54:33.052Z,12.59
2022-10-13T06:56:59.313Z,12.88
2022-10-13T06:59:25.818Z,13.16
2022-10-13T07:01:52.462Z,12.70
2022-10-13T07:04:18.745Z,12.50
2022-10-13T07:06:45.176Z,12.08
2022-10-13T07:09:11.514Z,12.26
2022-10-13T07:11:37.790Z,12.30
2022-10-13T07:14:04.200Z,12.21
2022-10-13T07:16:30.483Z,12.36
2022-10-13T07:18:56.748Z,12.45
2022-10-13T07:21:25.729Z,12.37
2022-10-13T07:23:51.987Z,12.25
2022-10-13T07:26:18.256Z,12.18
2022-10-13T07:28:44.972Z,12.01
2022-10-13T07:31:12.317Z,11.86
2022-10-13T07:33:38.639Z,11.37
2022-10-13T07:36:05.185Z,11.87
2022-10-13T07:38:34.906Z,12.14
2022-10-13T07:41:01.140Z,12.07
2022-10-13T07:43:27.898Z,11.89
2022-10-13T07:45:55.187Z,11.80
2022-10-13T07:50:53.058Z,11.62
2022-10-13T07:53:19.374Z,11.68
2022-10-13T07:55:45.846Z,11.55
2022-10-13T07:58:12.451Z,11.68
2022-10-13T08:00:38.738Z,11.88
2022-10-13T08:03:05.499Z,11.98
2022-10-13T08:05:31.849Z,12.06
2022-10-13T08:07:58.585Z,11.98
2022-10-13T08:10:25.063Z,11.90
2022-10-13T08:12:52.467Z,11.87
2022-10-13T08:15:18.808Z,12.02
2022-10-13T08:17:45.305Z,11.93
2022-10-13T08:20:11.761Z,11.03
2022-10-13T08:22:38.078Z,11.44
2022-10-13T08:25:04.479Z,10.79
2022-10-13T08:27:49.549Z,11.24
2022-10-13T08:30:16.463Z,11.32
2022-10-13T08:32:43.205Z,11.13
2022-10-13T08:35:09.539Z,11.20
2022-10-13T08:37:36.350Z,11.30
2022-10-13T08:40:03.119Z,11.53
2022-10-13T08:42:29.911Z,11.69
2022-10-13T08:45:39.261Z,11.52
2022-10-13T08:47:43.380Z,11.46
2022-10-13T08:50:09.863Z,11.45
2022-10-13T08:52:36.582Z,11.31
2022-10-13T08:55:03.011Z,11.09
2022-10-13T08:57:29.669Z,11.27
2022-10-13T08:59:55.970Z,11.36
2022-10-13T09:02:22.459Z,11.72
2022-10-13T09:04:48.894Z,11.98
2022-10-13T09:07:15.573Z,12.11
2022-10-13T09:09:42.566Z,12.21
2022-10-13T09:12:09.193Z,12.34
2022-10-13T09:14:35.457Z,11.95
2022-10-13T09:17:02.037Z,12.05
2022-10-13T09:19:31.227Z,12.37
2022-10-13T09:21:57.524Z,12.31
2022-10-13T09:24:26.256Z,12.45
2022-10-13T09:26:52.586Z,12.54
2022-10-13T09:29:18.865Z,12.64
2022-10-13T09:31:45.758Z,12.62
2022-10-13T09:34:12.050Z,12.69
2022-10-13T09:36:38.385Z,12.73
2022-10-13T09:39:04.804Z,12.77
2022-10-13T09:41:31.292Z,12.79
2022-10-13T09:43:57.579Z,12.84
2022-10-13T09:46:24.335Z,12.94
2022-10-13T09:48:50.696Z,12.95
2022-10-13T09:51:16.977Z,13.06
2022-10-13T09:53:44.027Z,13.02
2022-10-13T09:56:11.365Z,13.01
2022-10-13T09:58:37.882Z,12.88
2022-10-13T10:01:04.620Z,12.82
2022-10-13T10:03:30.850Z,12.91
2022-10-13T10:05:57.129Z,13.01
2022-10-13T10:08:33.288Z,12.99
2022-10-13T10:10:59.850Z,12.95
2022-10-13T10:13:27.098Z,13.13
2022-10-13T10:15:53.365Z,13.02
2022-10-13T10:18:20.196Z,12.97
2022-10-13T10:20:47.343Z,13.01
2022-10-13T10:23:13.734Z,12.92
2022-10-13T10:25:40.045Z,12.81
2022-10-13T10:28:06.593Z,13.04
2022-10-13T10:30:32.907Z,13.13
2022-10-13T10:32:59.160Z,13.06
2022-10-13T10:35:26.135Z,13.14
2022-10-13T10:37:54.779Z,13.29
2022-10-13T10:40:21.122Z,12.94
2022-10-13T10:42:51.939Z,13.00
2022-10-13T10:45:18.761Z,13.21
2022-10-13T10:47:45.219Z,13.31
2022-10-13T10:50:11.644Z,13.46
2022-10-13T10:52:38.016Z,13.45
2022-10-13T10:55:04.349Z,13.40
2022-10-13T10:57:30.784Z,13.36
2022-10-13T10:59:57.062Z,13.26
2022-10-13T11:02:23.583Z,13.35
2022-10-13T11:04:52.106Z,13.30
2022-10-13T11:07:18.444Z,13.23
2022-10-13T11:09:45.043Z,13.26
2022-10-13T11:12:11.597Z,13.15
2022-10-13T11:14:37.949Z,13.10
2022-10-13T11:17:04.238Z,13.02
2022-10-13T11:19:30.578Z,12.54
2022-10-13T11:21:56.954Z,12.71
2022-10-13T11:24:23.225Z,12.68
2022-10-13T11:26:49.660Z,12.56
2022-10-13T11:29:15.982Z,12.78
2022-10-13T11:31:42.272Z,12.91
2022-10-13T11:34:08.587Z,12.95
2022-10-13T11:36:35.098Z,12.88
2022-10-13T11:39:01.379Z,12.96
2022-10-13T11:41:28.503Z,12.81
2022-10-13T11:43:54.774Z,12.97
2022-10-13T11:46:22.402Z,13.08
2022-10-13T11:48:48.796Z,13.13
2022-10-13T11:51:16.433Z,13.12
2022-10-13T11:53:43.244Z,13.16
2022-10-13T11:56:09.681Z,13.22
2022-10-13T11:58:36.176Z,13.31
2022-10-13T12:01:02.494Z,13.31
2022-10-13T12:03:29.148Z,13.25
2022-10-13T12:05:55.469Z,13.26
2022-10-13T12:08:22.224Z,13.30
2022-10-13T12:10:48.550Z,13.35
2022-10-13T12:13:15.888Z,13.41
2022-10-13T12:15:42.267Z,13.40
2022-10-13T12:18:08.653Z,13.45
2022-10-13T12:20:34.919Z,13.53
2022-10-13T12:23:01.166Z,13.59
2022-10-13T12:25:27.589Z,13.71
2022-10-13T12:27:53.883Z,13.57
2022-10-13T12:30:20.143Z,13.66
2022-10-13T12:32:46.508Z,13.67
2022-10-13T12:35:12.766Z,13.65
2022-10-13T12:37:39.042Z,13.60
2022-10-13T12:40:05.500Z,13.68
2022-10-13T12:42:31.824Z,13.71
2022-10-13T12:44:58.129Z,13.73
2022-10-13T12:47:24.825Z,13.49
2022-10-13T12:49:51.069Z,13.15
2022-10-13T12:52:17.536Z,13.30
2022-10-13T12:54:44.558Z,13.35
2022-10-13T12:57:10.805Z,13.42
2022-10-13T12:59:37.132Z,13.32
2022-10-13T13:02:03.468Z,13.32
2022-10-13T13:04:29.802Z,13.20
2022-10-13T13:06:56.058Z,13.20
2022-10-13T13:09:22.912Z,13.11
2022-10-13T13:11:49.425Z,13.34
2022-10-13T13:14:15.784Z,13.30
2022-10-13T13:16:42.114Z,13.32
2022-10-13T13:19:08.661Z,13.11
2022-10-13T13:21:35.246Z,12.56
2022-10-13T13:24:04.312Z,12.86
2022-10-13T13:26:42.221Z,13.00
2022-10-13T13:29:08.568Z,13.30
2022-10-13T13:31:34.878Z,13.50
2022-10-13T13:34:01.148Z,13.24
2022-10-13T13:36:27.524Z,13.04
2022-10-13T13:38:54.809Z,13.18
2022-10-13T13:41:21.296Z,13.38
2022-10-13T13:43:47.619Z,13.47
2022-10-13T13:46:13.911Z,13.53
2022-10-13T13:48:40.294Z,13.54
2022-10-13T13:51:06.615Z,13.53
2022-10-13T13:53:32.910Z,13.56
2022-10-13T13:55:59.213Z,13.60
2022-10-13T13:58:25.493Z,13.72
2022-10-13T14:00:51.731Z,13.70
2022-10-13T14:03:19.551Z,13.69
2022-10-13T14:05:46.265Z,13.66
2022-10-13T14:08:12.537Z,13.60
2022-10-13T14:10:38.775Z,13.60
2022-10-13T14:13:05.219Z,13.55
2022-10-13T14:15:31.474Z,13.56
2022-10-13T14:17:57.821Z,13.60
2022-10-13T14:20:24.236Z,13.59
2022-10-13T14:22:50.549Z,13.50
2022-10-13T14:25:16.846Z,13.60
2022-10-13T14:27:43.242Z,13.26
2022-10-13T14:30:09.726Z,13.30
2022-10-13T14:32:36.023Z,13.29
2022-10-13T14:35:02.594Z,13.20
2022-10-13T14:37:33.338Z,13.29
2022-10-13T14:40:00.267Z,13.32
2022-10-13T14:42:26.936Z,13.27
2022-10-13T14:44:53.198Z,13.08
2022-10-13T14:47:19.734Z,12.95
2022-10-13T14:49:46.239Z,12.88
2022-10-13T14:52:12.498Z,12.83
2022-10-13T14:54:42.457Z,12.97
2022-10-13T14:57:11.118Z,12.83
2022-10-13T14:59:37.437Z,12.75
2022-10-13T15:02:03.885Z,12.96
2022-10-13T15:15:26.119Z,13.05
2022-10-13T15:17:52.455Z,12.91
2022-10-13T15:20:18.756Z,12.95
2022-10-13T15:22:45.700Z,13.02
2022-10-13T15:25:12.096Z,12.87
2022-10-13T15:27:41.881Z,12.68
2022-10-13T15:30:09.232Z,12.38
2022-10-13T15:32:35.489Z,12.50
2022-10-13T15:35:02.367Z,12.63
2022-10-13T15:37:28.934Z,12.52
2022-10-13T15:39:57.520Z,12.57
2022-10-13T15:42:24.203Z,12.57
2022-10-13T15:45:09.572Z,12.45
2022-10-13T15:47:36.928Z,12.39
2022-10-13T15:50:03.434Z,12.47
2022-10-13T15:52:34.431Z,12.48
2022-10-13T15:55:05.062Z,12.47
2022-10-13T15:57:31.508Z,12.50
2022-10-13T15:59:57.862Z,12.55
2022-10-13T16:02:24.833Z,12.55
2022-10-13T16:04:51.802Z,12.51
2022-10-13T16:07:18.140Z,12.49
2022-10-13T16:09:44.457Z,12.55
2022-10-13T16:12:11.051Z,12.87
2022-10-13T16:14:37.333Z,13.05
2022-10-13T16:17:03.648Z,13.17
2022-10-13T16:19:30.082Z,13.27
2022-10-13T16:21:56.467Z,13.38
2022-10-13T16:24:22.727Z,13.46
2022-10-13T16:26:49.138Z,13.53
2022-10-13T16:29:15.415Z,13.57
2022-10-13T16:31:41.934Z,13.53
2022-10-13T16:34:08.330Z,13.30
2022-10-13T16:36:34.621Z,13.06
2022-10-13T16:39:00.986Z,12.92
2022-10-13T16:41:27.724Z,12.80
2022-10-13T16:43:54.476Z,12.72
2022-10-13T16:46:20.765Z,12.65
2022-10-13T16:48:47.440Z,12.58
2022-10-13T16:51:14.042Z,12.47
2022-10-13T16:53:40.445Z,12.41
2022-10-13T16:56:06.776Z,12.12
2022-10-13T16:58:33.128Z,12.17
2022-10-13T17:00:59.545Z,12.20
2022-10-13T17:03:26.033Z,12.26
2022-10-13T17:05:52.332Z,12.38
2022-10-13T17:08:21.546Z,12.51
2022-10-13T17:10:53.819Z,12.52
2022-10-13T17:13:24.109Z,12.37
2022-10-13T17:15:52.927Z,12.31
2022-10-13T17:18:19.276Z,12.16
2022-10-13T17:20:45.618Z,12.14
2022-10-13T17:23:12.452Z,11.85
2022-10-13T17:25:38.884Z,11.79
2022-10-13T17:28:05.586Z,11.83
2022-10-13T17:30:32.261Z,11.88
2022-10-13T17:33:02.055Z,11.90
2022-10-13T17:35:31.061Z,11.92
2022-10-13T17:37:58.251Z,11.83
2022-10-13T17:40:25.114Z,11.80
2022-10-13T17:42:52.033Z,11.76
2022-10-13T17:45:18.709Z,11.75
2022-10-13T17:47:45.486Z,11.70
2022-10-13T17:50:12.985Z,11.70
2022-10-13T17:52:39.788Z,11.72
2022-10-13T17:55:06.237Z,11.65
2022-10-13T17:57:33.140Z,11.50
2022-10-13T18:00:00.549Z,11.26
2022-10-13T18:02:27.152Z,11.26
2022-10-13T18:04:54.076Z,11.38
2022-10-13T18:07:21.256Z,11.45
2022-10-13T18:09:47.889Z,11.47
2022-10-13T18:12:14.528Z,11.60
2022-10-13T18:14:41.159Z,11.46
2022-10-13T18:17:07.654Z,11.18
2022-10-13T18:19:39.301Z,11.21
2022-10-13T18:22:07.005Z,11.31
2022-10-13T18:24:33.703Z,11.06
2022-10-13T18:27:00.472Z,10.96
2022-10-13T18:29:27.086Z,11.09
2022-10-13T18:31:55.612Z,11.04
2022-10-13T18:34:22.277Z,11.18
2022-10-13T18:36:50.067Z,11.07
2022-10-13T18:39:16.789Z,10.73
2022-10-13T18:41:48.224Z,10.79
2022-10-13T18:44:15.063Z,10.83
2022-10-13T18:46:41.770Z,10.84
2022-10-13T18:49:10.703Z,10.99
2022-10-13T18:51:37.883Z,10.96
2022-10-13T18:54:07.533Z,11.07
2022-10-13T18:56:34.925Z,10.98
2022-10-13T18:59:02.287Z,10.68
2022-10-13T19:01:29.090Z,10.83
2022-10-13T19:03:56.062Z,10.75
2022-10-13T19:06:24.370Z,10.47
2022-10-13T19:08:50.792Z,10.68
2022-10-13T19:11:17.943Z,10.74
2022-10-13T19:13:44.922Z,10.87
2022-10-13T19:16:11.191Z,10.64
2022-10-13T19:18:37.731Z,10.67
2022-10-13T19:21:07.356Z,10.65
2022-10-13T19:23:35.857Z,10.80
2022-10-13T19:26:02.142Z,10.90
2022-10-13T19:28:29.659Z,10.80
2022-10-13T19:30:56.432Z,10.39
2022-10-13T19:33:26.180Z,10.38
2022-10-13T19:35:53.384Z,10.51
2022-10-13T19:38:20.688Z,10.39
2022-10-13T19:40:47.427Z,10.58
2022-10-13T19:43:14.863Z,10.77
2022-10-13T19:45:46.650Z,10.86
2022-10-13T19:48:13.463Z,10.98
2022-10-13T19:50:41.303Z,10.95
2022-10-13T19:53:08.126Z,10.74
2022-10-13T19:55:34.919Z,10.61
2022-10-13T19:58:01.974Z,10.66
2022-10-13T20:00:28.873Z,10.69
2022-10-13T20:02:55.505Z,10.57
2022-10-13T20:05:25.481Z,10.58
2022-10-13T20:07:52.080Z,10.70
2022-10-13T20:10:19.165Z,10.50
2022-10-13T20:12:45.942Z,10.33
2022-10-13T20:15:12.288Z,10.66
2022-10-13T20:17:39.151Z,10.55
2022-10-13T20:20:05.612Z,10.46
2022-10-13T20:22:34.956Z,10.48
2022-10-13T20:25:01.560Z,10.62
2022-10-13T20:27:28.304Z,10.51
2022-10-13T20:29:54.603Z,10.43
2022-10-13T20:32:20.942Z,10.53
2022-10-13T20:34:47.538Z,10.59
2022-10-13T20:37:14.218Z,10.33
2022-10-13T20:39:42.835Z,10.24
2022-10-13T20:42:09.342Z,10.44
2022-10-13T20:44:35.854Z,10.44
2022-10-13T20:47:02.367Z,10.23
2022-10-13T20:49:28.737Z,10.37
2022-10-13T20:51:55.042Z,10.43
2022-10-13T20:54:24.145Z,10.65
2022-10-13T20:56:50.791Z,10.51
2022-10-13T20:59:17.151Z,10.54
2022-10-13T21:01:43.428Z,10.28
2022-10-13T21:04:10.356Z,10.23
2022-10-13T21:06:36.681Z,10.22
2022-10-13T21:09:02.970Z,10.40
2022-10-13T21:11:29.356Z,10.40
2022-10-13T21:13:55.731Z,10.51
2022-10-13T21:16:22.495Z,10.62
2022-10-13T21:18:49.359Z,10.70
2022-10-13T21:21:15.634Z,10.66
2022-10-13T21:23:42.040Z,10.74
2022-10-13T21:26:08.881Z,10.55
2022-10-13T21:28:35.172Z,10.49
2022-10-13T21:31:01.501Z,10.61
2022-10-13T21:33:28.689Z,10.61
2022-10-13T21:35:54.954Z,10.64
2022-10-13T21:38:21.203Z,10.58
2022-10-13T21:40:51.631Z,10.64
2022-10-13T21:43:19.999Z,10.60
2022-10-13T21:45:46.247Z,10.58
2022-10-13T21:48:12.556Z,10.64
2022-10-13T21:50:38.837Z,10.36
2022-10-13T21:53:05.125Z,10.54
2022-10-13T21:55:31.440Z,10.68
2022-10-13T21:58:00.622Z,10.56
2022-10-13T22:00:30.656Z,10.53
2022-10-13T22:02:57.183Z,10.61
2022-10-13T22:05:23.513Z,10.52
2022-10-13T22:07:49.789Z,10.56
2022-10-13T22:10:16.164Z,10.48
2022-10-13T22:12:42.474Z,10.36
2022-10-13T22:15:08.796Z,10.44
2022-10-13T22:17:35.212Z,10.48
2022-10-13T22:20:02.664Z,10.52
2022-10-13T22:22:31.070Z,10.62
2022-10-13T22:24:57.819Z,10.43
2022-10-13T22:27:25.131Z,10.36
2022-10-13T22:29:51.409Z,10.24
2022-10-13T22:32:17.955Z,10.45
2022-10-13T22:34:44.273Z,10.52
2022-10-13T22:37:10.566Z,10.63
2022-10-13T22:39:37.716Z,10.69
2022-10-13T22:42:04.057Z,10.62
2022-10-13T22:44:30.386Z,10.64
2022-10-13T22:46:56.797Z,10.38
2022-10-13T22:49:23.109Z,10.41
2022-10-13T22:51:49.386Z,10.45
2022-10-13T22:54:15.720Z,10.23
2022-10-13T22:56:42.010Z,10.25
2022-10-13T22:59:08.341Z,10.23
2022-10-13T23:01:34.644Z,10.29
2022-10-13T23:04:01.163Z,10.32
2022-10-13T23:06:27.473Z,10.32
2022-10-13T23:08:53.968Z,10.16
2022-10-13T23:11:20.353Z,10.33
2022-10-13T23:13:46.820Z,10.44
2022-10-13T23:16:13.423Z,10.45
2022-10-13T23:18:39.707Z,10.46
2022-10-13T23:21:06.061Z,10.35
2022-10-13T23:23:34.203Z,10.46
2022-10-13T23:26:00.705Z,10.52
2022-10-13T23:28:26.990Z,10.35
2022-10-13T23:30:53.384Z,10.47
2022-10-13T23:33:19.668Z,10.11
2022-10-13T23:35:45.973Z,10.25
2022-10-13T23:38:12.478Z,10.34
2022-10-13T23:40:38.751Z,10.34
2022-10-13T23:43:05.070Z,10.36
2022-10-13T23:45:31.432Z,10.33
2022-10-13T23:47:57.701Z,10.25
2022-10-13T23:50:23.987Z,10.04
2022-10-13T23:52:50.399Z,9.98
2022-10-13T23:55:16.657Z,10.04
2022-10-13T23:57:42.926Z,9.93
